Time;durP1;ratioP1;P1;durP2;ratioP2;P2;SDS_P1;SDS_P2;PMS_P1;PMS_P2;Temp;Humidity;BMP_temperature;BMP_pressure;BME280_temperature;BME280_humidity;BME280_pressure;Samples;Min_cycle;Max_cycle;Signal;HPM_P1;HPM_P2
2023/01/02 00:01:17;;;;;;;8.00;2.80;;;14.60;70.50;;;;;;5051472;28;20461;-66
2023/01/02 00:03:45;;;;;;;7.33;3.37;;;14.60;70.50;;;;;;5050546;28;20496;-65
2023/01/02 00:06:13;;;;;;;12.03;3.47;;;14.50;70.40;;;;;;5052262;28;20486;-65
2023/01/02 00:08:41;;;;;;;10.13;2.70;;;14.50;70.50;;;;;;5050947;28;20459;-65
2023/01/02 00:11:10;;;;;;;5.93;2.63;;;14.50;70.50;;;;;;5051487;28;20504;-65
2023/01/02 00:13:37;;;;;;;7.27;2.80;;;14.50;70.40;;;;;;5054412;28;20539;-65
2023/01/02 00:16:06;;;;;;;7.47;2.63;;;14.60;70.40;;;;;;5049040;28;20517;-66
2023/01/02 00:18:35;;;;;;;7.33;2.53;;;14.60;70.40;;;;;;5051559;28;20465;-66
2023/01/02 00:21:04;;;;;;;5.80;2.50;;;14.60;70.40;;;;;;5049827;28;20520;-64
2023/01/02 00:23:33;;;;;;;5.93;2.60;;;14.50;70.40;;;;;;5048420;28;20513;-66
2023/01/02 00:26:01;;;;;;;5.83;2.53;;;14.50;70.40;;;;;;5052552;28;20454;-67
2023/01/02 00:28:30;;;;;;;6.40;2.80;;;14.40;70.40;;;;;;5049051;28;21105;-68
2023/01/02 00:30:58;;;;;;;7.90;2.83;;;14.40;70.40;;;;;;5048874;28;21248;-64
2023/01/02 00:33:26;;;;;;;7.53;3.40;;;14.40;70.50;;;;;;5051600;28;20518;-67
2023/01/02 00:36:05;;;;;;;8.67;3.00;;;14.40;70.50;;;;;;5050423;28;20463;-65
2023/01/02 00:38:34;;;;;;;6.03;2.30;;;14.30;70.60;;;;;;5052393;28;20487;-64
2023/01/02 00:41:06;;;;;;;8.13;2.77;;;14.30;70.60;;;;;;5051340;28;20447;-65
2023/01/02 00:43:34;;;;;;;5.17;2.07;;;14.30;70.60;;;;;;5052559;28;20498;-64
2023/01/02 00:46:02;;;;;;;5.50;2.70;;;14.30;70.60;;;;;;5051657;28;20454;-66
2023/01/02 00:48:38;;;;;;;6.80;2.70;;;14.30;70.60;;;;;;5050081;28;20497;-66
2023/01/02 00:51:07;;;;;;;9.00;2.70;;;14.30;70.60;;;;;;5044897;28;21039;-64
2023/01/02 00:53:35;;;;;;;6.00;2.80;;;14.30;70.60;;;;;;5044900;28;20536;-65
2023/01/02 00:56:03;;;;;;;7.57;2.40;;;14.30;70.60;;;;;;5044904;28;20458;-66
2023/01/02 00:58:31;;;;;;;6.37;2.67;;;14.30;70.70;;;;;;5044207;28;20579;-65
2023/01/02 01:00:59;;;;;;;5.27;2.20;;;14.30;70.60;;;;;;5041312;28;20489;-66
2023/01/02 01:03:27;;;;;;;8.17;2.83;;;14.30;70.60;;;;;;5040793;28;20812;-64
2023/01/02 01:05:55;;;;;;;5.50;2.33;;;14.30;70.70;;;;;;5044597;28;20466;-64
2023/01/02 01:08:24;;;;;;;8.77;2.70;;;14.30;70.70;;;;;;5042749;28;20457;-65
2023/01/02 01:10:52;;;;;;;7.27;2.63;;;14.30;70.70;;;;;;5042984;28;20494;-64
2023/01/02 01:13:20;;;;;;;5.40;2.77;;;14.30;70.70;;;;;;5041074;28;20491;-64
2023/01/02 01:15:48;;;;;;;7.20;2.60;;;14.30;70.70;;;;;;5042816;28;20463;-66
2023/01/02 01:18:16;;;;;;;9.30;2.97;;;14.30;70.70;;;;;;5040415;28;21063;-66
2023/01/02 01:20:44;;;;;;;7.73;2.70;;;14.30;70.70;;;;;;5037939;28;20473;-65
2023/01/02 01:23:12;;;;;;;8.03;2.50;;;14.30;70.60;;;;;;5056195;28;21288;-66
2023/01/02 01:25:41;;;;;;;6.10;2.33;;;14.30;70.60;;;;;;5042339;28;20467;-64
2023/01/02 01:28:09;;;;;;;8.93;3.20;;;14.30;70.70;;;;;;5040773;28;20968;-66
2023/01/02 01:30:37;;;;;;;5.30;2.43;;;14.30;70.60;;;;;;5042860;28;20479;-66
2023/01/02 01:33:04;;;;;;;6.03;2.10;;;14.30;70.60;;;;;;5041783;28;20483;-66
2023/01/02 01:35:33;;;;;;;6.80;2.00;;;14.30;70.50;;;;;;5041615;28;21236;-66
2023/01/02 01:38:01;;;;;;;8.17;3.07;;;14.30;70.60;;;;;;5041373;28;20538;-66
2023/01/02 01:40:36;;;;;;;12.73;4.57;;;14.30;70.60;;;;;;5042114;28;20451;-65
2023/01/02 01:43:10;;;;;;;8.37;3.27;;;14.30;70.60;;;;;;5043866;28;20482;-64
2023/01/02 01:45:41;;;;;;;8.37;3.10;;;14.20;70.50;;;;;;5041637;28;20508;-66
2023/01/02 01:48:13;;;;;;;7.60;3.10;;;14.20;70.50;;;;;;5040698;28;21354;-63
2023/01/02 01:50:42;;;;;;;9.30;2.87;;;14.30;70.50;;;;;;5039157;28;20523;-66
2023/01/02 01:53:14;;;;;;;7.30;2.20;;;14.30;70.50;;;;;;5041472;28;20482;-65
2023/01/02 01:55:47;;;;;;;6.57;2.00;;;14.30;70.50;;;;;;5041501;28;20455;-66
2023/01/02 01:58:20;;;;;;;7.50;2.23;;;14.40;70.40;;;;;;5042311;28;21054;-66
2023/01/02 02:00:49;;;;;;;6.47;2.43;;;14.40;70.30;;;;;;5040310;28;20826;-66
2023/01/02 02:03:21;;;;;;;8.37;2.43;;;14.40;70.20;;;;;;5041633;28;20475;-65
2023/01/02 02:05:50;;;;;;;6.30;2.20;;;14.40;70.20;;;;;;5038924;28;20457;-65
2023/01/02 02:08:20;;;;;;;6.90;1.90;;;14.40;70.10;;;;;;5041784;28;20482;-65
2023/01/02 02:10:50;;;;;;;6.17;2.10;;;14.40;70.10;;;;;;5037848;28;20517;-65
2023/01/02 02:13:19;;;;;;;6.80;2.30;;;14.40;70.10;;;;;;5041526;28;20487;-65
2023/01/02 02:16:04;;;;;;;5.90;2.60;;;14.40;70.10;;;;;;5040412;28;20462;-65
2023/01/02 02:18:44;;;;;;;6.53;2.17;;;14.40;70.10;;;;;;5041982;28;21445;-65
2023/01/02 02:21:30;;;;;;;8.10;2.70;;;14.40;70.10;;;;;;5038497;28;21019;-65
2023/01/02 02:24:32;;;;;;;5.57;2.23;;;14.40;70.10;;;;;;5041649;28;20474;-67
2023/01/02 02:27:10;;;;;;;7.00;2.33;;;14.30;70.10;;;;;;5041143;28;22103;-65
2023/01/02 02:30:10;;;;;;;8.53;2.73;;;14.30;70.10;;;;;;5040985;28;20520;-66
2023/01/02 02:32:58;;;;;;;7.83;2.50;;;14.30;70.00;;;;;;5040605;28;20454;-64
2023/01/02 02:35:37;;;;;;;7.57;2.60;;;14.30;70.10;;;;;;5040629;28;20558;-64
2023/01/02 02:38:11;;;;;;;8.67;2.70;;;14.20;70.10;;;;;;5041117;28;20456;-66
2023/01/02 02:40:49;;;;;;;5.57;2.13;;;14.20;70.10;;;;;;5041233;28;20454;-65
2023/01/02 02:43:28;;;;;;;5.00;2.27;;;14.20;70.10;;;;;;5037960;28;21006;-65
2023/01/02 02:46:05;;;;;;;7.13;2.93;;;14.20;70.20;;;;;;5039554;28;20457;-65
2023/01/02 02:48:42;;;;;;;6.27;1.90;;;14.20;70.10;;;;;;5041094;28;20466;-66
2023/01/02 02:51:19;;;;;;;6.30;2.20;;;14.20;70.10;;;;;;5039158;28;20497;-66
2023/01/02 02:53:53;;;;;;;6.33;2.20;;;14.20;70.10;;;;;;5039968;28;21065;-65
2023/01/02 02:56:25;;;;;;;8.20;2.30;;;14.20;70.20;;;;;;5041142;28;20496;-66
2023/01/02 02:58:54;;;;;;;5.50;2.30;;;14.20;70.20;;;;;;5040790;28;20454;-66
2023/01/02 03:01:26;;;;;;;5.93;2.57;;;14.20;70.20;;;;;;5044019;28;20478;-66
2023/01/02 03:03:58;;;;;;;6.90;2.10;;;14.20;70.20;;;;;;5043366;28;20573;-66
2023/01/02 03:06:38;;;;;;;5.10;2.03;;;14.20;70.20;;;;;;5044778;28;20990;-65
2023/01/02 03:09:17;;;;;;;6.30;2.10;;;14.20;70.10;;;;;;5041258;28;20458;-65
2023/01/02 03:11:54;;;;;;;9.23;2.90;;;14.10;70.20;;;;;;5042777;28;20683;-65
2023/01/02 03:14:33;;;;;;;8.97;3.00;;;14.10;70.20;;;;;;5044595;28;20855;-65
2023/01/02 03:17:07;;;;;;;7.97;2.30;;;14.10;70.20;;;;;;5042605;28;20814;-65
2023/01/02 03:19:40;;;;;;;6.50;2.40;;;14.10;70.20;;;;;;5043533;28;20465;-65
2023/01/02 03:22:12;;;;;;;8.20;2.90;;;14.10;70.20;;;;;;5041753;28;20504;-65
2023/01/02 03:24:43;;;;;;;9.40;3.10;;;14.00;70.20;;;;;;5043958;28;20489;-65
2023/01/02 03:27:15;;;;;;;5.30;1.90;;;14.00;70.20;;;;;;5044047;28;20524;-65
2023/01/02 03:29:46;;;;;;;6.60;2.57;;;14.00;70.10;;;;;;5043739;28;20462;-65
2023/01/02 03:32:23;;;;;;;8.10;2.90;;;14.00;70.30;;;;;;5041806;28;21053;-65
2023/01/02 03:34:52;;;;;;;10.50;2.90;;;14.00;70.30;;;;;;5042052;28;20470;-65
2023/01/02 03:37:24;;;;;;;7.13;2.70;;;13.90;70.40;;;;;;5044425;28;20527;-65
2023/01/02 03:39:54;;;;;;;8.50;2.70;;;14.00;70.30;;;;;;5041044;28;20459;-66
2023/01/02 03:42:27;;;;;;;8.63;3.27;;;13.90;70.40;;;;;;5042458;28;20447;-66
2023/01/02 03:45:00;;;;;;;6.57;2.20;;;14.00;70.30;;;;;;5042686;28;20454;-66
2023/01/02 03:47:35;;;;;;;5.93;2.47;;;14.00;70.30;;;;;;5043941;28;20471;-66
2023/01/02 03:50:10;;;;;;;10.93;2.70;;;14.00;70.20;;;;;;5042639;28;20450;-65
2023/01/02 03:52:38;;;;;;;9.00;3.20;;;14.00;70.10;;;;;;5041789;28;20528;-66
2023/01/02 03:55:08;;;;;;;9.00;2.30;;;14.00;70.20;;;;;;5043487;28;21202;-66
2023/01/02 03:57:47;;;;;;;6.33;2.30;;;14.00;70.20;;;;;;5042226;28;20960;-66
2023/01/02 04:00:29;;;;;;;5.43;2.20;;;14.00;70.10;;;;;;5044402;28;20455;-66
2023/01/02 04:03:06;;;;;;;6.87;2.57;;;14.10;70.10;;;;;;5043150;28;20563;-65
2023/01/02 04:05:42;;;;;;;8.00;2.27;;;14.10;70.10;;;;;;5042483;28;20568;-66
2023/01/02 04:08:15;;;;;;;5.80;2.47;;;14.10;70.00;;;;;;5044777;28;21000;-66
2023/01/02 04:10:45;;;;;;;7.53;2.57;;;14.10;70.00;;;;;;5041349;28;20549;-66
2023/01/02 04:13:18;;;;;;;7.53;2.60;;;14.00;70.10;;;;;;5041843;28;21203;-65
2023/01/02 04:15:49;;;;;;;10.93;2.70;;;14.00;70.00;;;;;;5042732;28;20459;-65
2023/01/02 04:18:21;;;;;;;6.67;2.57;;;14.00;70.00;;;;;;5042776;28;20455;-65
2023/01/02 04:20:53;;;;;;;10.43;3.17;;;14.00;70.00;;;;;;5040877;28;20522;-65
2023/01/02 04:23:24;;;;;;;8.27;2.90;;;14.00;70.00;;;;;;5044725;28;20496;-65
2023/01/02 04:25:59;;;;;;;5.97;2.40;;;14.00;70.00;;;;;;5043013;28;20867;-66
2023/01/02 04:28:29;;;;;;;7.33;2.93;;;14.00;70.00;;;;;;5042013;28;20458;-65
2023/01/02 04:31:04;;;;;;;7.27;2.87;;;14.10;69.90;;;;;;5042001;28;21024;-66
2023/01/02 04:33:37;;;;;;;9.23;2.50;;;14.10;69.90;;;;;;5041291;28;20478;-65
2023/01/02 04:36:09;;;;;;;5.50;2.30;;;14.10;69.90;;;;;;5041678;28;20466;-65
2023/01/02 04:38:37;;;;;;;7.17;2.20;;;14.10;69.90;;;;;;5043914;28;20504;-66
2023/01/02 04:41:07;;;;;;;7.27;2.80;;;14.10;69.90;;;;;;5040213;28;20477;-65
2023/01/02 04:43:35;;;;;;;6.07;2.17;;;14.10;69.80;;;;;;5042813;28;20487;-65
2023/01/02 04:46:03;;;;;;;7.73;1.90;;;14.20;69.80;;;;;;5044160;28;20451;-66
2023/01/02 04:48:31;;;;;;;7.23;2.33;;;14.20;69.80;;;;;;5044396;28;20453;-65
2023/01/02 04:51:00;;;;;;;9.70;2.50;;;14.20;69.70;;;;;;5042180;28;20463;-65
2023/01/02 04:53:28;;;;;;;6.50;2.23;;;14.20;69.70;;;;;;5043561;28;20541;-66
2023/01/02 04:55:56;;;;;;;6.87;2.07;;;14.20;69.70;;;;;;5042698;28;20465;-66
2023/01/02 04:58:25;;;;;;;6.53;2.10;;;14.20;69.70;;;;;;5043033;28;20477;-66
2023/01/02 05:00:53;;;;;;;10.80;2.40;;;14.20;69.70;;;;;;5042764;28;20544;-65
2023/01/02 05:03:21;;;;;;;8.47;2.90;;;14.20;69.60;;;;;;5043360;28;21325;-66
2023/01/02 05:05:49;;;;;;;6.80;2.10;;;14.20;69.60;;;;;;5042312;28;20450;-66
2023/01/02 05:08:18;;;;;;;9.70;2.17;;;14.10;69.70;;;;;;5043417;28;20467;-65
2023/01/02 05:10:46;;;;;;;7.77;2.80;;;14.20;69.60;;;;;;5042273;28;20553;-66
2023/01/02 05:13:14;;;;;;;6.20;2.07;;;14.10;69.70;;;;;;5041363;28;20801;-65
2023/01/02 05:15:42;;;;;;;5.40;2.10;;;14.10;69.60;;;;;;5042657;28;20474;-65
2023/01/02 05:18:10;;;;;;;7.40;2.30;;;14.10;69.70;;;;;;5042101;28;20485;-65
2023/01/02 05:20:38;;;;;;;5.00;2.43;;;14.10;69.70;;;;;;5041212;28;20455;-65
2023/01/02 05:25:52;;;;;;;7.43;2.20;;;14.10;69.60;;;;;;5042212;28;20514;-66
2023/01/02 05:28:20;;;;;;;6.40;2.07;;;14.10;69.60;;;;;;5041396;28;20463;-65
2023/01/02 05:30:49;;;;;;;10.20;2.00;;;14.10;69.60;;;;;;5040377;28;20451;-66
2023/01/02 05:33:17;;;;;;;7.97;2.20;;;14.10;69.60;;;;;;5040035;28;20491;-65
2023/01/02 05:35:44;;;;;;;8.23;2.33;;;14.10;69.70;;;;;;5041321;28;20463;-66
2023/01/02 05:38:13;;;;;;;10.57;3.00;;;14.10;69.60;;;;;;5040655;28;20455;-65
2023/01/02 05:40:40;;;;;;;7.20;2.30;;;14.10;69.50;;;;;;5040085;28;20498;-65
2023/01/02 05:43:10;;;;;;;5.70;2.30;;;14.10;69.60;;;;;;5041696;28;20734;-65
2023/01/02 05:45:37;;;;;;;5.57;2.10;;;14.10;69.50;;;;;;5040889;28;20939;-65
2023/01/02 05:48:06;;;;;;;7.63;2.23;;;14.10;69.50;;;;;;5042373;28;21158;-65
2023/01/02 05:50:34;;;;;;;5.67;2.10;;;14.10;69.60;;;;;;5039856;28;20513;-65
2023/01/02 05:53:01;;;;;;;7.10;1.93;;;14.00;69.60;;;;;;5041402;28;20497;-66
2023/01/02 05:55:29;;;;;;;5.63;2.00;;;14.00;69.70;;;;;;5043090;28;20467;-65
2023/01/02 05:57:58;;;;;;;5.90;2.20;;;14.10;69.60;;;;;;5057172;28;20478;-65
2023/01/02 06:00:27;;;;;;;4.90;1.87;;;14.00;69.60;;;;;;5040860;28;20471;-65
2023/01/02 06:02:55;;;;;;;5.33;2.43;;;14.10;69.60;;;;;;5040739;28;20485;-66
2023/01/02 06:05:23;;;;;;;6.30;2.43;;;14.10;69.60;;;;;;5042299;28;20902;-65
2023/01/02 06:07:51;;;;;;;5.90;2.53;;;14.00;69.60;;;;;;5040536;28;20463;-65
2023/01/02 06:10:19;;;;;;;9.20;1.87;;;14.00;69.60;;;;;;5041811;28;21282;-65
2023/01/02 06:12:47;;;;;;;8.00;2.97;;;13.90;69.70;;;;;;5040374;28;20490;-65
2023/01/02 06:15:15;;;;;;;11.87;2.60;;;13.90;69.70;;;;;;5041321;28;20463;-65
2023/01/02 06:17:44;;;;;;;6.63;2.40;;;13.90;69.80;;;;;;5040743;28;20467;-65
2023/01/02 06:20:12;;;;;;;5.47;1.97;;;13.80;69.80;;;;;;5040884;28;20470;-66
2023/01/02 06:22:39;;;;;;;5.43;2.13;;;13.80;69.80;;;;;;5040182;28;20470;-65
2023/01/02 06:25:08;;;;;;;6.13;2.93;;;13.80;69.90;;;;;;5041858;28;20465;-65
2023/01/02 06:27:36;;;;;;;7.70;2.57;;;13.70;69.90;;;;;;5041341;28;20451;-65
2023/01/02 06:30:05;;;;;;;4.87;2.50;;;13.70;70.00;;;;;;5041062;28;20463;-66
2023/01/02 06:32:33;;;;;;;12.70;3.03;;;13.60;70.00;;;;;;5040992;28;20805;-65
2023/01/02 06:35:02;;;;;;;5.73;2.33;;;13.60;70.10;;;;;;5041235;28;20962;-65
2023/01/02 06:37:30;;;;;;;6.43;2.67;;;13.60;70.20;;;;;;5041742;28;20944;-65
2023/01/02 06:39:58;;;;;;;10.00;3.17;;;13.60;70.20;;;;;;5041791;28;20470;-66
2023/01/02 06:42:26;;;;;;;7.13;2.97;;;13.50;70.20;;;;;;5041497;28;20459;-65
2023/01/02 06:44:54;;;;;;;5.87;2.50;;;13.50;70.30;;;;;;5041265;28;20532;-65
2023/01/02 06:47:23;;;;;;;6.50;2.40;;;13.50;70.40;;;;;;5041728;28;21094;-65
2023/01/02 06:49:51;;;;;;;6.43;2.10;;;13.40;70.50;;;;;;5036678;28;20471;-66
2023/01/02 06:52:21;;;;;;;6.87;2.53;;;13.40;70.70;;;;;;5036032;28;20968;-66
2023/01/02 06:54:48;;;;;;;8.40;2.73;;;13.40;70.70;;;;;;5063945;28;20479;-66
2023/01/02 06:57:16;;;;;;;8.67;2.40;;;13.40;70.70;;;;;;5036830;28;20471;-66
2023/01/02 06:59:44;;;;;;;7.47;2.43;;;13.40;70.80;;;;;;5040604;28;21208;-65
2023/01/02 07:02:13;;;;;;;7.40;2.40;;;13.30;70.80;;;;;;5037466;28;20459;-65
2023/01/02 07:04:41;;;;;;;6.30;2.50;;;13.30;70.90;;;;;;5038479;28;20482;-65
2023/01/02 07:07:09;;;;;;;6.07;2.40;;;13.30;70.90;;;;;;5039470;28;20545;-65
2023/01/02 07:09:39;;;;;;;6.33;2.30;;;13.30;71.00;;;;;;5038441;28;21128;-65
2023/01/02 07:12:07;;;;;;;5.50;2.43;;;13.30;71.10;;;;;;5039493;28;20451;-66
2023/01/02 07:14:35;;;;;;;6.30;2.63;;;13.20;71.10;;;;;;5039308;28;20491;-64
2023/01/02 07:17:04;;;;;;;10.80;3.13;;;13.20;71.20;;;;;;5038429;28;20576;-64
2023/01/02 07:19:32;;;;;;;6.10;2.60;;;13.20;71.20;;;;;;5041559;28;20516;-64
2023/01/02 07:22:00;;;;;;;10.67;2.83;;;13.20;71.30;;;;;;5039189;28;20583;-64
2023/01/02 07:24:28;;;;;;;5.90;2.20;;;13.20;71.30;;;;;;5040102;28;20497;-65
2023/01/02 07:26:57;;;;;;;4.83;2.10;;;13.20;71.40;;;;;;5040077;28;20470;-64
2023/01/02 07:29:25;;;;;;;4.70;2.03;;;13.10;71.40;;;;;;5040988;28;20463;-64
2023/01/02 07:31:54;;;;;;;7.23;2.20;;;13.10;71.50;;;;;;5054457;28;21144;-66
2023/01/02 07:34:22;;;;;;;6.10;2.83;;;13.10;71.50;;;;;;5039223;28;20486;-64
2023/01/02 07:36:50;;;;;;;5.80;2.50;;;13.00;71.60;;;;;;5036324;28;21028;-65
2023/01/02 07:39:18;;;;;;;10.17;2.60;;;13.00;71.60;;;;;;5037359;28;20494;-65
2023/01/02 07:41:47;;;;;;;13.73;2.63;;;13.00;71.70;;;;;;5038135;28;20462;-66
2023/01/02 07:44:17;;;;;;;5.90;2.73;;;13.00;71.70;;;;;;5039920;28;20475;-65
2023/01/02 07:46:46;;;;;;;5.80;2.60;;;13.00;71.90;;;;;;5040895;28;20516;-64
2023/01/02 07:49:15;;;;;;;5.07;2.17;;;13.00;71.90;;;;;;5042967;28;20473;-65
2023/01/02 07:51:42;;;;;;;8.10;2.57;;;13.00;72.00;;;;;;5043505;28;20532;-64
2023/01/02 07:54:10;;;;;;;5.73;2.33;;;13.10;72.00;;;;;;5043660;28;20541;-66
2023/01/02 07:56:38;;;;;;;6.07;2.50;;;13.10;72.00;;;;;;5041299;28;20534;-65
2023/01/02 07:59:06;;;;;;;19.30;2.80;;;13.10;71.90;;;;;;5044844;28;20462;-64
2023/01/02 08:01:35;;;;;;;6.23;2.50;;;13.20;72.00;;;;;;5059914;28;20528;-64
2023/01/02 08:04:05;;;;;;;12.80;2.97;;;13.20;72.00;;;;;;5044122;28;20478;-66
2023/01/02 08:06:33;;;;;;;4.90;2.00;;;13.20;72.00;;;;;;5044376;28;20458;-66
2023/01/02 08:09:01;;;;;;;7.03;2.37;;;13.20;71.90;;;;;;5042955;28;20466;-66
2023/01/02 08:11:28;;;;;;;6.70;2.40;;;13.30;71.90;;;;;;5041158;28;20459;-65
2023/01/02 08:13:57;;;;;;;4.83;1.90;;;13.30;71.90;;;;;;5042834;28;20490;-65
2023/01/02 08:16:25;;;;;;;7.07;2.60;;;13.30;71.80;;;;;;5043200;28;20471;-66
2023/01/02 08:18:55;;;;;;;6.00;2.30;;;13.40;71.80;;;;;;5043683;28;20471;-65
2023/01/02 08:21:24;;;;;;;9.40;2.20;;;13.40;71.70;;;;;;5041654;28;20530;-65
2023/01/02 08:23:52;;;;;;;7.50;2.20;;;13.40;71.70;;;;;;5042615;28;20493;-65
2023/01/02 08:26:20;;;;;;;6.20;2.10;;;13.40;71.60;;;;;;5042692;28;20463;-65
2023/01/02 08:28:48;;;;;;;4.93;2.17;;;13.50;71.60;;;;;;5043107;28;20469;-65
2023/01/02 08:31:18;;;;;;;12.40;2.53;;;13.50;71.40;;;;;;5042386;28;20512;-65
2023/01/02 08:33:46;;;;;;;9.50;2.33;;;13.60;71.30;;;;;;5039805;28;20489;-65
2023/01/02 08:36:15;;;;;;;6.20;2.17;;;13.60;71.20;;;;;;5044607;28;20455;-65
2023/01/02 08:38:43;;;;;;;6.73;2.60;;;13.60;71.10;;;;;;5042514;28;20460;-66
2023/01/02 08:41:11;;;;;;;5.30;2.10;;;13.60;71.00;;;;;;5043357;28;20509;-65
2023/01/02 08:43:40;;;;;;;6.80;2.37;;;13.60;70.90;;;;;;5043979;28;20930;-65
2023/01/02 08:46:09;;;;;;;5.63;1.93;;;13.70;70.90;;;;;;5042081;28;20466;-65
2023/01/02 08:48:37;;;;;;;8.30;2.43;;;13.70;70.80;;;;;;5041627;28;20462;-65
2023/01/02 08:51:05;;;;;;;7.30;2.77;;;13.70;70.70;;;;;;5042383;28;20467;-65
2023/01/02 08:53:35;;;;;;;10.43;2.77;;;13.70;70.80;;;;;;5044173;28;20483;-65
2023/01/02 08:56:23;;;;;;;6.80;2.37;;;13.70;70.70;;;;;;5042669;28;21133;-65
2023/01/02 08:58:53;;;;;;;8.93;2.90;;;13.70;70.60;;;;;;5041366;28;20470;-65
2023/01/02 09:01:22;;;;;;;11.57;2.50;;;13.70;70.50;;;;;;5043149;28;20454;-65
2023/01/02 09:03:51;;;;;;;7.23;2.40;;;13.70;70.50;;;;;;5041556;28;20479;-65
2023/01/02 09:06:19;;;;;;;6.03;2.20;;;13.70;70.50;;;;;;5059938;28;20455;-65
2023/01/02 09:08:52;;;;;;;7.90;2.83;;;13.70;70.50;;;;;;5042688;28;21298;-65
2023/01/02 09:11:22;;;;;;;7.97;2.87;;;13.70;70.40;;;;;;5042519;28;20956;-64
2023/01/02 09:13:51;;;;;;;6.73;2.03;;;13.80;70.40;;;;;;5042224;28;20486;-64
2023/01/02 09:16:21;;;;;;;9.93;2.83;;;13.80;70.30;;;;;;5039649;28;20460;-64
2023/01/02 09:18:49;;;;;;;6.50;2.13;;;13.80;70.30;;;;;;5036741;28;20506;-65
2023/01/02 09:21:17;;;;;;;10.57;2.20;;;13.80;70.30;;;;;;5040177;28;20465;-65
2023/01/02 09:23:45;;;;;;;6.33;2.03;;;13.80;70.20;;;;;;5042286;28;20521;-66
2023/01/02 09:26:15;;;;;;;7.93;2.37;;;13.90;70.20;;;;;;5042316;28;20525;-66
2023/01/02 09:28:43;;;;;;;12.10;2.60;;;13.90;70.10;;;;;;5041677;28;20468;-66
2023/01/02 09:31:13;;;;;;;12.50;6.43;;;13.90;70.10;;;;;;5038679;28;20512;-66
2023/01/02 09:33:42;;;;;;;7.23;3.20;;;13.90;70.10;;;;;;5038142;28;20528;-66
2023/01/02 09:36:12;;;;;;;8.77;2.73;;;13.90;70.10;;;;;;5040203;28;20455;-66
2023/01/02 09:38:40;;;;;;;6.97;2.50;;;14.00;69.90;;;;;;5042156;28;20454;-66
2023/01/02 09:41:21;;;;;;;7.77;2.17;;;14.00;69.90;;;;;;5041891;28;20455;-66
2023/01/02 09:43:55;;;;;;;7.90;2.73;;;14.10;69.80;;;;;;5042209;28;21095;-66
2023/01/02 09:46:31;;;;;;;9.63;2.33;;;14.10;69.70;;;;;;5038884;28;21247;-66
2023/01/02 09:49:00;;;;;;;14.13;3.10;;;14.10;69.70;;;;;;5036175;28;20823;-65
2023/01/02 09:51:28;;;;;;;7.50;2.50;;;14.20;69.70;;;;;;5041157;28;20456;-66
2023/01/02 09:53:56;;;;;;;9.40;2.07;;;14.20;69.70;;;;;;5041761;28;20564;-65
2023/01/02 09:56:32;;;;;;;7.13;2.20;;;14.20;69.60;;;;;;5041941;28;20471;-66
2023/01/02 09:59:10;;;;;;;5.40;2.57;;;14.30;69.50;;;;;;5041358;28;20467;-65
2023/01/02 10:01:50;;;;;;;6.23;2.60;;;14.30;69.40;;;;;;5038986;28;21127;-66
2023/01/02 10:04:28;;;;;;;9.87;2.30;;;14.30;69.40;;;;;;5041609;28;20568;-66
2023/01/02 10:07:04;;;;;;;10.37;2.93;;;14.30;69.30;;;;;;5041593;28;20891;-66
2023/01/02 10:09:39;;;;;;;6.37;2.50;;;14.40;69.20;;;;;;5041758;28;20466;-64
2023/01/02 10:12:14;;;;;;;7.30;2.33;;;14.50;69.10;;;;;;5041283;28;20477;-65
2023/01/02 10:14:52;;;;;;;4.90;2.07;;;14.50;69.10;;;;;;5040685;28;20846;-66
2023/01/02 10:17:21;;;;;;;7.43;2.80;;;14.60;68.90;;;;;;5042840;28;20481;-64
2023/01/02 10:19:54;;;;;;;7.30;2.40;;;14.60;69.00;;;;;;5038896;28;20458;-64
2023/01/02 10:22:30;;;;;;;9.20;2.37;;;14.60;68.90;;;;;;5040102;28;20520;-66
2023/01/02 10:25:04;;;;;;;8.17;2.60;;;14.70;68.80;;;;;;5041313;28;20956;-66
2023/01/02 10:27:39;;;;;;;8.83;2.17;;;14.70;68.80;;;;;;5043950;28;20955;-66
2023/01/02 10:30:18;;;;;;;15.97;3.30;;;14.70;68.60;;;;;;5041860;28;21226;-65
2023/01/02 10:32:53;;;;;;;8.03;2.60;;;14.70;68.60;;;;;;5041463;28;20482;-64
2023/01/02 10:35:35;;;;;;;7.63;2.60;;;14.80;68.70;;;;;;5039813;28;20462;-66
2023/01/02 10:38:03;;;;;;;15.47;3.33;;;14.80;68.60;;;;;;5041793;28;20967;-65
2023/01/02 10:40:33;;;;;;;11.13;3.03;;;14.80;68.60;;;;;;5042107;28;20470;-66
2023/01/02 10:43:02;;;;;;;7.80;2.53;;;14.80;68.50;;;;;;5040358;28;20495;-66
2023/01/02 10:45:30;;;;;;;8.60;2.33;;;14.90;68.50;;;;;;5038782;28;20459;-65
2023/01/02 10:47:58;;;;;;;8.47;2.80;;;14.90;68.40;;;;;;5041303;28;21147;-65
2023/01/02 10:50:30;;;;;;;11.37;2.80;;;14.90;68.50;;;;;;5039599;28;20447;-65
2023/01/02 10:53:06;;;;;;;9.73;2.60;;;14.90;68.50;;;;;;5038393;28;21035;-64
2023/01/02 10:55:38;;;;;;;12.43;3.53;;;15.00;68.40;;;;;;5041993;28;20481;-66
2023/01/02 10:58:16;;;;;;;9.23;3.20;;;15.00;68.30;;;;;;5039145;28;20493;-66
2023/01/02 11:00:44;;;;;;;11.73;3.30;;;15.00;68.30;;;;;;5039890;28;21047;-65
2023/01/02 11:03:16;;;;;;;12.00;2.93;;;15.00;68.10;;;;;;5035829;28;20491;-64
2023/01/02 11:05:47;;;;;;;8.17;3.20;;;15.10;68.30;;;;;;5039873;28;20591;-64
2023/01/02 11:08:18;;;;;;;11.13;3.23;;;15.20;68.10;;;;;;5038872;28;21129;-65
2023/01/02 11:10:47;;;;;;;8.90;3.00;;;15.20;68.00;;;;;;5036656;28;20511;-64
2023/01/02 11:13:19;;;;;;;13.73;2.97;;;15.20;68.00;;;;;;5036804;28;20551;-66
2023/01/02 11:15:50;;;;;;;11.83;2.50;;;15.20;68.00;;;;;;5040080;28;20564;-66
2023/01/02 11:18:24;;;;;;;13.30;2.90;;;15.30;67.80;;;;;;5041120;28;21012;-66
2023/01/02 11:20:55;;;;;;;14.93;3.87;;;15.30;67.80;;;;;;5041291;28;20447;-66
2023/01/02 11:23:25;;;;;;;12.23;2.77;;;15.30;67.60;;;;;;5045681;28;20470;-64
2023/01/02 11:25:54;;;;;;;9.87;2.97;;;15.40;67.50;;;;;;5042885;28;20519;-64
2023/01/02 11:28:26;;;;;;;14.10;3.10;;;15.40;67.40;;;;;;5042129;28;20514;-65
2023/01/02 11:31:00;;;;;;;10.30;2.50;;;15.40;67.30;;;;;;5039569;28;20964;-66
2023/01/02 11:33:30;;;;;;;11.97;3.13;;;15.40;67.20;;;;;;5043323;28;20478;-66
2023/01/02 11:36:06;;;;;;;16.23;3.10;;;15.40;67.30;;;;;;5041126;28;20892;-64
2023/01/02 11:38:43;;;;;;;20.53;3.80;;;15.50;67.00;;;;;;5038842;28;21132;-66
2023/01/02 11:44:15;;;;;;;14.93;3.87;;;15.50;66.90;;;;;;5040725;28;20477;-64
2023/01/02 11:46:48;;;;;;;11.13;3.00;;;15.60;66.90;;;;;;5041159;28;20536;-65
2023/01/02 11:49:20;;;;;;;11.73;3.80;;;15.60;66.80;;;;;;5042480;28;20806;-65
2023/01/02 11:51:54;;;;;;;16.30;3.23;;;15.60;66.80;;;;;;5041598;28;20539;-65
2023/01/02 11:54:30;;;;;;;9.63;2.90;;;15.60;66.60;;;;;;5041043;28;20622;-66
2023/01/02 11:56:59;;;;;;;12.20;2.70;;;15.60;66.70;;;;;;5042259;28;20489;-65
2023/01/02 11:59:36;;;;;;;13.43;2.60;;;15.60;66.70;;;;;;5036537;28;20452;-66
2023/01/02 12:02:13;;;;;;;9.80;2.60;;;15.70;66.60;;;;;;5039746;28;20450;-65
2023/01/02 12:04:42;;;;;;;6.83;2.43;;;15.70;66.50;;;;;;5042262;28;20477;-64
2023/01/02 12:07:27;;;;;;;10.10;2.67;;;15.80;66.40;;;;;;5042617;28;20458;-65
2023/01/02 12:10:01;;;;;;;14.43;3.13;;;15.80;66.40;;;;;;5039894;28;20508;-65
2023/01/02 12:12:48;;;;;;;14.60;2.93;;;15.80;66.40;;;;;;5041957;28;20454;-65
2023/01/02 12:15:45;;;;;;;10.97;2.80;;;15.80;66.20;;;;;;5038356;28;21059;-66
2023/01/02 12:18:26;;;;;;;9.90;2.97;;;15.80;66.10;;;;;;5039339;28;20470;-65
2023/01/02 12:21:06;;;;;;;10.20;2.87;;;15.80;66.10;;;;;;5042853;28;20961;-64
2023/01/02 12:24:21;;;;;;;15.30;3.73;;;15.80;66.10;;;;;;5043726;28;20475;-64
2023/01/02 12:26:57;;;;;;;13.63;3.43;;;15.80;66.10;;;;;;5044185;28;21359;-65
2023/01/02 12:29:43;;;;;;;13.00;3.37;;;15.70;66.20;;;;;;5041650;28;20524;-63
2023/01/02 12:32:39;;;;;;;16.43;3.20;;;15.70;66.10;;;;;;5040739;28;20469;-65
2023/01/02 12:35:20;;;;;;;7.00;2.83;;;15.70;66.30;;;;;;5043591;28;20443;-65
2023/01/02 12:37:54;;;;;;;10.63;2.67;;;15.70;66.30;;;;;;5042465;28;20475;-64
2023/01/02 12:40:43;;;;;;;12.63;3.20;;;15.70;66.30;;;;;;5044370;28;20504;-65
2023/01/02 12:43:32;;;;;;;13.30;3.37;;;15.70;66.40;;;;;;5043686;28;20532;-63
2023/01/02 12:46:14;;;;;;;15.77;3.20;;;15.80;66.40;;;;;;5041226;28;20478;-65
2023/01/02 12:49:07;;;;;;;11.10;2.90;;;15.70;66.50;;;;;;5043920;28;20488;-65
2023/01/02 12:51:45;;;;;;;44.50;21.23;;;15.70;66.50;;;;;;5044339;28;20455;-66
2023/01/02 12:54:29;;;;;;;36.90;20.90;;;15.70;66.50;;;;;;5044906;28;20483;-64
2023/01/02 12:57:05;;;;;;;14.83;4.90;;;15.80;66.50;;;;;;5043332;28;20563;-65
2023/01/02 13:00:05;;;;;;;12.00;3.57;;;15.70;66.40;;;;;;5042614;28;20501;-64
2023/01/02 13:02:57;;;;;;;11.03;2.93;;;15.70;66.40;;;;;;5040330;28;20456;-65
2023/01/02 13:05:32;;;;;;;9.17;2.70;;;15.70;66.40;;;;;;5038334;28;20831;-65
2023/01/02 13:08:04;;;;;;;11.80;2.40;;;15.70;66.50;;;;;;5041292;28;20508;-66
2023/01/02 13:10:33;;;;;;;9.80;2.70;;;15.60;66.50;;;;;;5044120;28;20504;-65
2023/01/02 13:13:02;;;;;;;11.60;2.80;;;15.60;66.50;;;;;;5040423;28;20481;-64
2023/01/02 13:15:33;;;;;;;12.77;3.13;;;15.60;66.50;;;;;;5041926;28;20470;-65